Airfield :
LOGIN :

Register | Disclaimer

   EN    FR    IT 

 










Legend :    VFR   Marginal VFR   IFR   Intensive IFR   Very Intensive IFR
Visi :
Ceiling :
>= 8 km
>= 3000ft
5 to 8 km
1000 to 3000 ft
1500m to 5 km
500 to 1000 ft
800 to 1500m
200 to 500 ft
< 800m
< 200 ft
Symbols :   Thunderstorms  Fog  Heavy snow  Heavy precipitations  Wind > 20 kt
SIGMETs :     Misc.  Thunderstorms  Icing  Turbulence  Mountain Waves  Volcanic Ashes







- Airport Elevation : 102 ft
- IATA code : EXT
- Download approach charts


EGTE - Exeter

CURRENT METAR :
  • 290220Z 20004KT 170V230 8000 BKN004 14/14 Q1012

EXPIRED METARs :
  • 290150Z VRB02KT 9000 BKN005 14/14 Q1011
  • 290120Z 19004KT 140V210 9999 BKN006 15/14 Q1012

TAF TAF EGTE
Valid from the 29 at 00:00 until the 29 at 09:00 UTC


282258Z 2900/2909 VRB03KT 9999 SCT020
TEMPO 2900/2909 7000 SHRA
PROB30
TEMPO 2900/2909 3000 +SHRA BKN007 BKN048CB
No reported NOTAMs for that airfield.
1 SIGMET reported for the London FIR (EGTT) :
 
Embedded thunderstorms
EGTT SIGMET 01 VALID 290100/290400 EGRR
EGTT LONDON FIR EMBD TS OBS WI N5153 E00218 - N5142 E00210 - N5130 E00200 - N5107 E00200 - N5100 E00128 - N5040 E00128 - N5007 E00003 - N5149 E00041 - N5154 E00219 - N5153 E00218 TOP FL400 MOV NE 30KT NC=



MET'MAP, your aeronautical weather chart ! - Copyright ORBIFLY December 2007 - Disclaimer

ORBIFLY MET'MAP TEAM :

Programming & Development : Alexandra Zaïnal
Concept & Development : Baudouin d'Aumeries
Co-Development & Prog : Marc-Olivier Méhu
Technical & hardware support : Manuel Goepfert

Contact : metmap@orbifly.com




SOURCES & CREDITS :

   NOAA